LEGR/GRX METAR and TAF weather

Enter ICAO airport designator
Station Type Date Time Source
LEGR METAR 2020/07/10 15:30 UTC NOAA

LEGR 101530Z 26004KT 150V300 9999 FEW070 37/05 Q1013


Station Type Date Time Source
LEGR Decoded METAR 2020/07/10 15:30 UTC NOAA

Granada / Aeropuerto, Spain (LEGR) 37-11N 003-47W 570M
Jul 10, 2020 - 11:30 AM EDT / 2020.07.10 1530 UTC
Wind: from the W (260 degrees) at 5 MPH (4 KT) (direction variable):0
Visibility: greater than 7 mile(s):0
Sky conditions: mostly clear
Temperature: 98 F (37 C)
Dew Point: 41 F (5 C)
Relative Humidity: 13%
Pressure (altimeter): 29.91 in. Hg (1013 hPa)
ob: LEGR 101530Z 26004KT 150V300 9999 FEW070 37/05 Q1013
cycle: 15

Station Type Date Time Source
LEGR TAF 2020/07/10 15:29 UTC NOAA

TAF LEGR 101400Z 1015/1115 27005KT CAVOK TX38/1115Z TN16/1105Z
BECMG 1016/1018 19010KT
BECMG 1020/1022 VRB02KT
BECMG 1111/1113 18010KT

Example: see airport list